Time;durP1;ratioP1;P1;durP2;ratioP2;P2;SDS_P1;SDS_P2;PMS_P1;PMS_P2;Temp;Humidity;BMP_temperature;BMP_pressure;BME280_temperature;BME280_humidity;BME280_pressure;Samples;Min_cycle;Max_cycle;Signal;HPM_P1;HPM_P2
2023/11/27 00:00:27;;;;;;;4.72;3.88;;;;;;;-146.61;100.00;58846.50;6182889;23;20021;-82
2023/11/27 00:02:54;;;;;;;6.10;4.35;;;;;;;-146.61;100.00;58846.50;6181366;23;20029;-84
2023/11/27 00:05:20;;;;;;;6.07;3.42;;;;;;;-146.61;100.00;58846.50;6203030;23;20025;-81
2023/11/27 00:07:47;;;;;;;5.32;3.40;;;;;;;-146.61;100.00;58846.50;6180669;23;20024;-80
2023/11/27 00:10:15;;;;;;;5.07;3.47;;;;;;;-146.61;100.00;58846.50;6203605;23;20047;-81
2023/11/27 00:12:41;;;;;;;4.95;3.22;;;;;;;-146.61;100.00;58846.50;6177853;23;20025;-82
2023/11/27 00:15:10;;;;;;;3.05;2.72;;;;;;;-146.61;100.00;58846.50;6177198;23;20034;-82
2023/11/27 00:17:38;;;;;;;4.65;3.88;;;;;;;-146.61;100.00;58846.50;6205287;23;20013;-83
2023/11/27 00:20:09;;;;;;;4.80;2.80;;;;;;;-146.61;100.00;58846.50;6184369;23;20025;-82
2023/11/27 00:22:37;;;;;;;3.33;2.65;;;;;;;-146.61;100.00;58846.50;6186109;23;20024;-82
2023/11/27 00:25:04;;;;;;;6.00;3.03;;;;;;;-146.61;100.00;58846.50;6185299;23;20024;-84
2023/11/27 00:27:31;;;;;;;5.53;2.92;;;;;;;-146.61;100.00;58846.50;6188265;23;20197;-82
2023/11/27 00:29:59;;;;;;;5.68;3.58;;;;;;;-146.61;100.00;58846.50;6184931;23;20045;-82
2023/11/27 00:32:26;;;;;;;7.35;3.42;;;;;;;-146.61;100.00;58846.50;6209334;23;20089;-82
2023/11/27 00:34:57;;;;;;;3.78;2.58;;;;;;;-146.61;100.00;58846.50;6182256;23;20362;-81
2023/11/27 00:37:24;;;;;;;4.50;3.35;;;;;;;-146.61;100.00;58846.50;6210441;23;20434;-81
2023/11/27 00:39:50;;;;;;;6.53;3.50;;;;;;;-146.61;100.00;58846.50;6186607;23;20013;-80
2023/11/27 00:42:20;;;;;;;6.53;2.65;;;;;;;-146.61;100.00;58846.50;6187503;23;20025;-82
2023/11/27 00:44:48;;;;;;;5.63;3.10;;;;;;;-146.61;100.00;58846.50;6185509;23;20031;-82
2023/11/27 00:47:15;;;;;;;4.40;2.50;;;;;;;-146.61;100.00;58846.50;6186592;23;20056;-82
2023/11/27 00:49:42;;;;;;;4.75;3.00;;;;;;;-146.61;100.00;58846.50;6209322;23;20088;-81
2023/11/27 00:52:08;;;;;;;3.58;2.40;;;;;;;-146.61;100.00;58846.50;6187928;23;20040;-82
2023/11/27 00:54:35;;;;;;;7.65;3.28;;;;;;;-146.61;100.00;58846.50;6186617;23;20035;-83
2023/11/27 00:57:02;;;;;;;3.67;2.70;;;;;;;-146.61;100.00;58846.50;6187684;23;20052;-82
2023/11/27 00:59:30;;;;;;;5.30;3.05;;;;;;;-146.61;100.00;58846.50;6189935;23;20052;-81
2023/11/27 01:02:03;;;;;;;5.93;2.50;;;;;;;-146.61;100.00;58846.50;6192056;23;20013;-82
2023/11/27 01:04:30;;;;;;;4.60;2.97;;;;;;;-146.61;100.00;58846.50;6187755;23;20031;-80
2023/11/27 01:06:57;;;;;;;2.42;2.05;;;;;;;-146.61;100.00;58846.50;6187622;23;20056;-83
2023/11/27 01:09:31;;;;;;;6.18;2.97;;;;;;;-146.61;100.00;58846.50;6212876;23;20021;-83
2023/11/27 01:11:59;;;;;;;3.72;2.67;;;;;;;-146.61;100.00;58846.50;6210862;23;20029;-81
2023/11/27 01:14:29;;;;;;;5.88;3.00;;;;;;;-146.61;100.00;58846.50;6208863;23;20032;-85
2023/11/27 01:16:56;;;;;;;4.15;2.35;;;;;;;-146.61;100.00;58846.50;6185867;23;20869;-82
2023/11/27 01:19:23;;;;;;;8.02;2.92;;;;;;;-146.61;100.00;58846.50;6186349;23;20029;-84
2023/11/27 01:21:53;;;;;;;4.38;2.10;;;;;;;-146.61;100.00;58846.50;6188781;23;20040;-82
2023/11/27 01:24:20;;;;;;;3.95;2.78;;;;;;;-146.61;100.00;58846.50;6189254;23;20024;-81
2023/11/27 01:26:51;;;;;;;5.38;3.05;;;;;;;-146.61;100.00;58846.50;6161633;23;20021;-84
2023/11/27 01:29:21;;;;;;;3.45;2.30;;;;;;;-146.61;100.00;58846.50;6186772;23;20636;-83
2023/11/27 01:31:50;;;;;;;3.75;2.67;;;;;;;-146.61;100.00;58846.50;6184439;23;20025;-81
2023/11/27 01:34:20;;;;;;;3.60;2.63;;;;;;;-146.61;100.00;58846.50;6184963;23;20024;-84
2023/11/27 01:36:46;;;;;;;5.60;2.78;;;;;;;-146.61;100.00;58846.50;6180740;23;20021;-81
2023/11/27 01:39:14;;;;;;;4.22;2.80;;;;;;;-146.61;100.00;58846.50;6208818;23;20076;-81
2023/11/27 01:41:40;;;;;;;6.30;3.22;;;;;;;-146.61;100.00;58846.50;6207282;23;20070;-82
2023/11/27 01:44:07;;;;;;;4.72;2.55;;;;;;;-146.61;100.00;58846.50;6184077;23;20020;-84
2023/11/27 01:46:34;;;;;;;3.55;2.78;;;;;;;-146.61;100.00;58846.50;6159097;23;20021;-83
2023/11/27 01:49:01;;;;;;;3.28;2.80;;;;;;;-146.61;100.00;58846.50;6186505;23;20017;-82
2023/11/27 01:51:31;;;;;;;6.50;3.20;;;;;;;-146.61;100.00;58846.50;6182300;23;20438;-83
2023/11/27 01:53:59;;;;;;;3.90;3.08;;;;;;;-146.61;100.00;58846.50;6185426;23;20542;-81
2023/11/27 01:56:27;;;;;;;4.95;2.92;;;;;;;-146.61;100.00;58846.50;6210585;23;20500;-83
2023/11/27 01:58:57;;;;;;;4.50;3.25;;;;;;;-146.61;100.00;58846.50;6183969;23;20091;-81
2023/11/27 02:01:23;;;;;;;3.55;3.00;;;;;;;-146.61;100.00;58846.50;6160863;23;20401;-83
2023/11/27 02:03:54;;;;;;;3.33;2.78;;;;;;;-146.61;100.00;58846.50;6184088;23;20021;-83
2023/11/27 02:06:25;;;;;;;12.05;3.22;;;;;;;-146.61;100.00;58846.50;6208647;23;20025;-80
2023/11/27 02:08:53;;;;;;;4.75;3.17;;;;;;;-146.61;100.00;58846.50;6182285;23;20082;-83
2023/11/27 02:11:20;;;;;;;3.30;3.00;;;;;;;-146.61;100.00;58846.50;6183578;23;20080;-80
2023/11/27 02:13:47;;;;;;;6.20;3.83;;;;;;;-146.61;100.00;58846.50;6183256;23;20123;-82
2023/11/27 02:16:15;;;;;;;7.20;3.85;;;;;;;-146.61;100.00;58846.50;6179193;23;20032;-81
2023/11/27 02:18:41;;;;;;;8.10;5.25;;;;;;;-146.61;100.00;58846.50;6205231;23;20027;-80
2023/11/27 02:21:09;;;;;;;3.90;3.53;;;;;;;-146.61;100.00;58846.50;6182636;23;20028;-81
2023/11/27 02:23:35;;;;;;;5.00;3.97;;;;;;;-146.61;100.00;58846.50;6179876;23;20024;-82
2023/11/27 02:26:02;;;;;;;4.30;3.75;;;;;;;-146.61;100.00;58846.50;6205536;23;20025;-81
2023/11/27 02:28:29;;;;;;;9.73;6.05;;;;;;;-146.61;100.00;58846.50;6206576;23;20028;-83
2023/11/27 02:30:56;;;;;;;5.47;4.45;;;;;;;-146.61;100.00;58846.50;6208370;23;20025;-82
2023/11/27 02:33:25;;;;;;;5.85;4.78;;;;;;;-146.61;100.00;58846.50;6184976;23;20079;-85
2023/11/27 02:35:54;;;;;;;7.68;5.20;;;;;;;-146.61;100.00;58846.50;6208402;23;20108;-81
2023/11/27 02:38:22;;;;;;;6.85;4.65;;;;;;;-146.61;100.00;58846.50;6209969;23;20085;-83
2023/11/27 02:40:51;;;;;;;7.47;5.25;;;;;;;-146.61;100.00;58846.50;6186419;23;20017;-83
2023/11/27 02:43:18;;;;;;;8.23;5.88;;;;;;;-146.61;100.00;58846.50;6210905;23;20021;-80
2023/11/27 02:45:47;;;;;;;8.30;5.13;;;;;;;-146.61;100.00;58846.50;6186633;23;20091;-83
2023/11/27 02:48:14;;;;;;;11.48;5.40;;;;;;;-146.61;100.00;58846.50;6212021;23;20017;-80
2023/11/27 02:50:41;;;;;;;11.05;6.15;;;;;;;-146.61;100.00;58846.50;6208723;23;20036;-82
2023/11/27 02:53:11;;;;;;;9.55;6.43;;;;;;;-146.61;100.00;58846.50;6208392;23;20048;-81
2023/11/27 02:55:37;;;;;;;8.73;5.88;;;;;;;-146.61;100.00;58846.50;6184809;23;20052;-80
2023/11/27 02:58:04;;;;;;;7.97;6.05;;;;;;;-146.61;100.00;58846.50;6213262;23;20023;-83
2023/11/27 03:00:31;;;;;;;9.60;6.68;;;;;;;-146.61;100.00;58846.50;6213402;23;20017;-83
2023/11/27 03:02:57;;;;;;;8.48;6.35;;;;;;;-146.61;100.00;58846.50;6192735;23;20470;-85
2023/11/27 03:05:24;;;;;;;9.88;6.90;;;;;;;-146.61;100.00;58846.50;6189411;23;20345;-83
2023/11/27 03:07:51;;;;;;;10.90;6.53;;;;;;;-146.61;100.00;58846.50;6213063;23;20489;-80
2023/11/27 03:10:18;;;;;;;8.82;6.63;;;;;;;-146.61;100.00;58846.50;6215066;23;20092;-85
2023/11/27 03:12:45;;;;;;;11.13;7.95;;;;;;;-146.61;100.00;58846.50;6188894;23;20446;-84
2023/11/27 03:15:16;;;;;;;13.32;7.95;;;;;;;-146.61;100.00;58846.50;6189203;23;20489;-81
2023/11/27 03:17:44;;;;;;;13.57;8.10;;;;;;;-146.61;100.00;58846.50;6187038;23;20055;-83
2023/11/27 03:20:11;;;;;;;11.50;7.65;;;;;;;-146.61;100.00;58846.50;6213278;23;20641;-84
2023/11/27 03:22:41;;;;;;;11.82;8.45;;;;;;;-146.61;100.00;58846.50;6187856;23;20119;-84
2023/11/27 03:25:08;;;;;;;9.15;8.00;;;;;;;-146.61;100.00;58846.50;6185268;23;20808;-82
2023/11/27 03:27:37;;;;;;;15.48;8.80;;;;;;;-146.61;100.00;58846.50;6174419;23;20025;-84
2023/11/27 03:30:04;;;;;;;13.85;9.25;;;;;;;-146.61;100.00;58846.50;6180459;23;20028;-81
2023/11/27 03:32:34;;;;;;;18.08;10.00;;;;;;;-146.61;100.00;58846.50;6189233;23;20013;-84
2023/11/27 03:35:01;;;;;;;17.33;11.50;;;;;;;-146.61;100.00;58846.50;6187612;23;20029;-80
2023/11/27 03:37:29;;;;;;;16.27;9.95;;;;;;;-146.61;100.00;58846.50;6190870;23;20017;-82
2023/11/27 03:39:55;;;;;;;21.23;13.77;;;;;;;-146.61;100.00;58846.50;6188919;23;20041;-83
2023/11/27 03:42:26;;;;;;;20.23;11.75;;;;;;;-146.61;100.00;58846.50;6190746;23;20017;-80
2023/11/27 03:44:55;;;;;;;19.63;12.98;;;;;;;-146.61;100.00;58846.50;6188199;23;20036;-84
2023/11/27 03:47:24;;;;;;;19.08;11.80;;;;;;;-146.61;100.00;58846.50;6188735;23;20017;-82
2023/11/27 03:49:58;;;;;;;19.85;12.43;;;;;;;-146.61;100.00;58846.50;6186703;23;20025;-82
2023/11/27 03:52:25;;;;;;;18.17;12.52;;;;;;;-146.61;100.00;58846.50;6188817;23;20025;-83
2023/11/27 03:54:52;;;;;;;20.50;12.73;;;;;;;-146.61;100.00;58846.50;6184227;23;20740;-83
2023/11/27 03:57:19;;;;;;;22.58;12.82;;;;;;;-146.61;100.00;58846.50;6189892;23;20028;-84
2023/11/27 03:59:47;;;;;;;20.52;13.25;;;;;;;-146.61;100.00;58846.50;6189060;23;20249;-83
2023/11/27 04:02:18;;;;;;;23.25;13.00;;;;;;;-146.61;100.00;58846.50;6187665;23;20017;-83
2023/11/27 04:04:45;;;;;;;22.38;14.07;;;;;;;-146.61;100.00;58846.50;6187538;23;20021;-85
2023/11/27 04:07:12;;;;;;;24.58;13.80;;;;;;;-146.61;100.00;58846.50;6188242;23;20021;-82
2023/11/27 04:09:39;;;;;;;19.73;12.52;;;;;;;-146.61;100.00;58846.50;6186495;23;20029;-82
2023/11/27 04:12:06;;;;;;;23.05;13.50;;;;;;;-146.61;100.00;58846.50;6185542;23;20025;-82
2023/11/27 04:14:34;;;;;;;23.38;12.23;;;;;;;-146.61;100.00;58846.50;6188392;23;20021;-82
2023/11/27 04:17:03;;;;;;;23.50;11.73;;;;;;;-146.61;100.00;58846.50;6213709;23;20465;-80
2023/11/27 04:19:30;;;;;;;17.23;11.10;;;;;;;-146.61;100.00;58846.50;6187058;23;20033;-82
2023/11/27 04:21:57;;;;;;;17.42;11.27;;;;;;;-146.61;100.00;58846.50;6187899;23;20037;-83
2023/11/27 04:24:26;;;;;;;20.02;11.95;;;;;;;-146.61;100.00;58846.50;6188932;23;20031;-84
2023/11/27 04:26:56;;;;;;;13.82;9.38;;;;;;;-146.61;100.00;58846.50;6190426;23;20028;-83
2023/11/27 04:29:23;;;;;;;11.82;9.23;;;;;;;-146.61;100.00;58846.50;6190640;23;20092;-82
2023/11/27 04:31:53;;;;;;;20.73;10.70;;;;;;;-146.61;100.00;58846.50;6186886;23;20036;-83
2023/11/27 04:34:20;;;;;;;17.52;11.05;;;;;;;-146.61;100.00;58846.50;6190002;23;20037;-82
2023/11/27 04:36:46;;;;;;;15.10;10.07;;;;;;;-146.61;100.00;58846.50;6189120;23;20021;-82
2023/11/27 04:39:14;;;;;;;15.75;9.50;;;;;;;-146.61;100.00;58846.50;6191086;23;20032;-80
2023/11/27 04:41:44;;;;;;;17.40;10.00;;;;;;;-146.61;100.00;58846.50;6189331;23;20539;-84
2023/11/27 04:44:11;;;;;;;15.13;9.48;;;;;;;-146.61;100.00;58846.50;6188032;23;20036;-81
2023/11/27 04:46:40;;;;;;;14.75;9.77;;;;;;;-146.61;100.00;58846.50;6191337;23;20028;-82
2023/11/27 04:49:09;;;;;;;21.45;10.70;;;;;;;-146.61;100.00;58846.50;6190806;23;20013;-81
2023/11/27 04:51:35;;;;;;;15.63;8.63;;;;;;;-146.61;100.00;58846.50;6189696;23;20044;-82
2023/11/27 04:54:15;;;;;;;19.13;9.98;;;;;;;-146.61;100.00;58846.50;6187267;23;20405;-82
2023/11/27 04:56:42;;;;;;;16.83;11.25;;;;;;;-146.61;100.00;58846.50;6188781;23;20017;-82
2023/11/27 04:59:09;;;;;;;17.75;10.68;;;;;;;-146.61;100.00;58846.50;6189445;23;20110;-83
2023/11/27 05:01:36;;;;;;;16.70;10.45;;;;;;;-146.61;100.00;58846.50;6187229;23;20071;-81
2023/11/27 05:04:03;;;;;;;19.05;12.07;;;;;;;-146.61;100.00;58846.50;6189028;23;20025;-83
2023/11/27 05:06:30;;;;;;;24.85;11.95;;;;;;;-146.61;100.00;58846.50;6188613;23;20613;-83
2023/11/27 05:08:58;;;;;;;15.70;10.77;;;;;;;-146.61;100.00;58846.50;6190202;23;20021;-83
2023/11/27 05:11:28;;;;;;;16.88;10.82;;;;;;;-146.61;100.00;58846.50;6186374;23;20031;-83
2023/11/27 05:13:55;;;;;;;22.30;12.40;;;;;;;-146.61;100.00;58846.50;6185016;23;20024;-82
2023/11/27 05:16:22;;;;;;;19.33;10.80;;;;;;;-146.61;100.00;58846.50;6188660;23;20093;-80
2023/11/27 05:18:49;;;;;;;21.63;12.05;;;;;;;-146.61;100.00;58846.50;6188393;23;20016;-81
2023/11/27 05:21:16;;;;;;;18.23;12.27;;;;;;;-146.61;100.00;58846.50;6185879;23;20052;-82
2023/11/27 05:23:43;;;;;;;14.77;11.65;;;;;;;-146.61;100.00;58846.50;6159040;23;20871;-82
2023/11/27 05:26:12;;;;;;;16.02;10.73;;;;;;;-146.61;100.00;58846.50;6184265;23;20031;-84
2023/11/27 05:28:41;;;;;;;20.67;11.57;;;;;;;-146.61;100.00;58846.50;6211358;23;20103;-82
2023/11/27 05:31:09;;;;;;;16.73;10.90;;;;;;;-146.61;100.00;58846.50;6186439;23;20112;-84
2023/11/27 05:33:37;;;;;;;16.38;11.40;;;;;;;-146.61;100.00;58846.50;6177421;23;20112;-80
2023/11/27 05:36:04;;;;;;;17.52;11.55;;;;;;;-146.61;100.00;58846.50;6208859;23;20028;-81
2023/11/27 05:38:33;;;;;;;17.67;11.35;;;;;;;-146.61;100.00;58846.50;6180802;23;20017;-84
2023/11/27 05:41:03;;;;;;;24.00;11.15;;;;;;;-146.61;100.00;58846.50;6176449;23;20036;-82
2023/11/27 05:43:31;;;;;;;21.50;10.77;;;;;;;-146.61;100.00;58846.50;6175989;23;20021;-81
2023/11/27 05:45:58;;;;;;;18.75;10.77;;;;;;;-146.61;100.00;58846.50;6176011;23;20025;-83
2023/11/27 05:48:24;;;;;;;15.70;10.00;;;;;;;-146.61;100.00;58846.50;6176430;23;20085;-83
2023/11/27 05:50:54;;;;;;;20.85;10.90;;;;;;;-146.61;100.00;58846.50;6179030;23;20063;-83
2023/11/27 05:53:22;;;;;;;18.77;10.30;;;;;;;-146.61;100.00;58846.50;6178941;23;20048;-84
2023/11/27 05:55:49;;;;;;;15.70;10.25;;;;;;;-146.61;100.00;58846.50;6178970;23;20025;-83
2023/11/27 05:58:20;;;;;;;18.48;10.43;;;;;;;-146.61;100.00;58846.50;6176450;23;20013;-83
2023/11/27 06:00:47;;;;;;;17.17;9.40;;;;;;;-146.61;100.00;58846.50;6183896;23;20013;-82
2023/11/27 06:03:14;;;;;;;16.67;10.50;;;;;;;-146.61;100.00;58846.50;6187112;23;20028;-83
2023/11/27 06:05:41;;;;;;;14.63;9.43;;;;;;;-146.61;100.00;58846.50;6186518;23;20040;-81
2023/11/27 06:08:07;;;;;;;18.05;9.43;;;;;;;-146.61;100.00;58846.50;6187476;23;20041;-81
2023/11/27 06:10:38;;;;;;;16.58;10.48;;;;;;;-146.61;100.00;58846.50;6187600;23;20029;-83
2023/11/27 06:13:08;;;;;;;14.88;10.02;;;;;;;-146.61;100.00;58846.50;6184800;23;20036;-84
2023/11/27 06:15:46;;;;;;;13.68;9.57;;;;;;;-146.61;100.00;58846.50;6187205;23;20031;-84
2023/11/27 06:18:13;;;;;;;16.60;9.95;;;;;;;-146.61;100.00;58846.50;6210460;23;20055;-83
2023/11/27 06:20:41;;;;;;;18.80;10.40;;;;;;;-146.61;100.00;58846.50;6208768;23;20666;-82
2023/11/27 06:23:07;;;;;;;14.18;9.40;;;;;;;-146.61;100.00;58846.50;6188682;23;20510;-82
2023/11/27 06:25:39;;;;;;;11.77;8.70;;;;;;;-146.61;100.00;58846.50;6222829;23;20020;-82
2023/11/27 06:28:07;;;;;;;19.05;10.63;;;;;;;-146.61;100.00;58846.50;6176450;23;20052;-83
2023/11/27 06:30:36;;;;;;;13.65;9.05;;;;;;;-146.61;100.00;58846.50;6184100;23;20029;-81
2023/11/27 06:33:05;;;;;;;14.73;9.48;;;;;;;-146.61;100.00;58846.50;6185283;23;20021;-86
2023/11/27 06:35:32;;;;;;;13.63;8.43;;;;;;;-146.61;100.00;58846.50;6183701;23;20196;-82
2023/11/27 06:38:02;;;;;;;14.00;10.13;;;;;;;-146.61;100.00;58846.50;6183099;23;20024;-82
2023/11/27 06:40:33;;;;;;;11.45;8.48;;;;;;;-146.61;100.00;58846.50;6180068;23;20045;-82
2023/11/27 06:43:00;;;;;;;16.00;8.40;;;;;;;-146.61;100.00;58846.50;6176057;23;20090;-82
2023/11/27 06:45:27;;;;;;;15.40;8.55;;;;;;;-146.61;100.00;58846.50;6202854;23;20735;-80
2023/11/27 06:47:56;;;;;;;10.48;8.07;;;;;;;-146.61;100.00;58846.50;6177334;23;20025;-81
2023/11/27 06:50:22;;;;;;;18.92;8.10;;;;;;;-146.61;100.00;58846.50;6203280;23;20025;-81
2023/11/27 06:52:51;;;;;;;12.18;7.35;;;;;;;-146.61;100.00;58846.50;6178159;23;20020;-80
2023/11/27 06:55:17;;;;;;;13.77;9.80;;;;;;;-146.61;100.00;58846.50;6178466;23;20017;-81
2023/11/27 06:57:47;;;;;;;11.15;7.75;;;;;;;-146.61;100.00;58846.50;6180510;23;20021;-81
2023/11/27 07:00:18;;;;;;;10.23;7.88;;;;;;;-146.61;100.00;58846.50;6180087;23;20017;-82
2023/11/27 07:02:47;;;;;;;9.20;7.65;;;;;;;-146.61;100.00;58846.50;6181129;23;20021;-82
2023/11/27 07:05:16;;;;;;;11.77;7.47;;;;;;;-146.61;100.00;58846.50;6204585;23;20051;-82
2023/11/27 07:07:45;;;;;;;11.38;7.75;;;;;;;-146.61;100.00;58846.50;6183833;23;20020;-82
2023/11/27 07:10:18;;;;;;;8.70;6.70;;;;;;;-146.61;100.00;58846.50;6182356;23;20072;-82
2023/11/27 07:12:48;;;;;;;12.23;8.55;;;;;;;-146.61;100.00;58846.50;6174894;23;20052;-82
2023/11/27 07:15:15;;;;;;;14.23;8.23;;;;;;;-146.61;100.00;58846.50;6175871;23;20028;-80
2023/11/27 07:17:42;;;;;;;14.73;9.63;;;;;;;-146.61;100.00;58846.50;6176058;23;20439;-83
2023/11/27 07:20:17;;;;;;;12.40;8.35;;;;;;;-146.61;100.00;58846.50;6202538;23;20028;-82
2023/11/27 07:22:43;;;;;;;12.23;7.05;;;;;;;-146.61;100.00;58846.50;6175501;23;20044;-80
2023/11/27 07:25:12;;;;;;;12.98;8.40;;;;;;;-146.61;100.00;58846.50;6180098;23;20032;-82
2023/11/27 07:27:45;;;;;;;11.30;8.30;;;;;;;-146.61;100.00;58846.50;6181557;23;20457;-85
2023/11/27 07:30:13;;;;;;;12.95;9.15;;;;;;;-146.61;100.00;58846.50;6180294;23;20021;-80
2023/11/27 07:32:40;;;;;;;12.95;7.60;;;;;;;-146.61;100.00;58846.50;6200297;23;20029;-81
2023/11/27 07:35:09;;;;;;;9.65;7.43;;;;;;;-146.61;100.00;58846.50;6176949;23;20048;-83
2023/11/27 07:37:37;;;;;;;9.20;7.05;;;;;;;-146.61;100.00;58846.50;6178599;23;20445;-82
2023/11/27 07:40:09;;;;;;;8.98;7.05;;;;;;;-146.61;100.00;58846.50;6181913;23;20052;-83
2023/11/27 07:42:36;;;;;;;12.05;7.47;;;;;;;-146.61;100.00;58846.50;6181347;23;20017;-83
2023/11/27 07:45:04;;;;;;;16.20;7.72;;;;;;;-146.61;100.00;58846.50;6181331;23;20025;-82
2023/11/27 07:47:31;;;;;;;10.95;7.50;;;;;;;-146.61;100.00;58846.50;6179286;23;20021;-83
2023/11/27 07:50:01;;;;;;;10.35;7.40;;;;;;;-146.61;100.00;58846.50;6203654;23;20023;-80
2023/11/27 07:52:28;;;;;;;11.52;7.80;;;;;;;-146.61;100.00;58846.50;6179654;23;20092;-81
2023/11/27 07:54:57;;;;;;;14.00;7.45;;;;;;;-146.61;100.00;58846.50;6206220;23;20024;-83
2023/11/27 07:57:24;;;;;;;10.07;7.97;;;;;;;-146.61;100.00;58846.50;6181240;23;20465;-82
2023/11/27 07:59:51;;;;;;;14.15;7.53;;;;;;;-146.61;100.00;58846.50;6181287;23;20033;-83
2023/11/27 08:02:18;;;;;;;13.50;8.45;;;;;;;-146.61;100.00;58846.50;6180274;23;20107;-80
2023/11/27 08:04:45;;;;;;;8.18;7.32;;;;;;;-146.61;100.00;58846.50;6183661;23;20104;-80
2023/11/27 08:07:11;;;;;;;12.68;8.32;;;;;;;-146.61;100.00;58846.50;6183965;23;20021;-82
2023/11/27 08:09:39;;;;;;;11.77;7.82;;;;;;;-146.61;100.00;58846.50;6205864;23;20278;-83
2023/11/27 08:12:09;;;;;;;11.13;5.97;;;;;;;-146.61;100.00;58846.50;6178516;23;20349;-82
2023/11/27 08:14:36;;;;;;;12.68;6.80;;;;;;;-146.61;100.00;58846.50;6203392;23;20132;-82
2023/11/27 08:17:02;;;;;;;10.55;6.30;;;;;;;-146.61;100.00;58846.50;6183403;23;20024;-81
2023/11/27 08:19:29;;;;;;;8.70;6.43;;;;;;;-146.61;100.00;58846.50;6180010;23;20021;-83
2023/11/27 08:21:55;;;;;;;11.88;7.35;;;;;;;-146.61;100.00;58846.50;6207380;23;20029;-81
2023/11/27 08:24:23;;;;;;;9.18;6.57;;;;;;;-146.61;100.00;58846.50;6179595;23;20032;-81
2023/11/27 08:26:52;;;;;;;7.22;5.85;;;;;;;-146.61;100.00;58846.50;6181493;23;20032;-84
2023/11/27 08:29:19;;;;;;;8.27;6.18;;;;;;;-146.61;100.00;58846.50;6207900;23;20071;-84
2023/11/27 08:31:46;;;;;;;7.60;5.90;;;;;;;-146.61;100.00;58846.50;6183553;23;20021;-81
2023/11/27 08:34:13;;;;;;;11.82;6.80;;;;;;;-146.61;100.00;58846.50;6182734;23;20028;-80
2023/11/27 08:36:40;;;;;;;9.30;6.05;;;;;;;-146.61;100.00;58846.50;6183354;23;20089;-81
2023/11/27 08:39:10;;;;;;;9.38;6.00;;;;;;;-146.61;100.00;58846.50;6207133;23;20017;-81
2023/11/27 08:41:37;;;;;;;9.93;5.95;;;;;;;-146.61;100.00;58846.50;6181318;23;20020;-81
2023/11/27 08:44:08;;;;;;;6.25;5.43;;;;;;;-146.61;100.00;58846.50;6182879;23;20028;-82
2023/11/27 08:46:36;;;;;;;7.60;5.60;;;;;;;-146.61;100.00;58846.50;6184419;23;20072;-83
2023/11/27 08:49:03;;;;;;;8.77;5.43;;;;;;;-146.61;100.00;58846.50;6209685;23;20072;-84
2023/11/27 08:51:31;;;;;;;7.40;5.63;;;;;;;-146.61;100.00;58846.50;6186095;23;20044;-81
2023/11/27 08:53:59;;;;;;;9.38;6.13;;;;;;;-146.61;100.00;58846.50;6186729;23;20028;-83
2023/11/27 08:56:26;;;;;;;8.85;6.18;;;;;;;-146.61;100.00;58846.50;6180720;23;20087;-82
2023/11/27 08:58:53;;;;;;;6.60;5.35;;;;;;;-146.61;100.00;58846.50;6180438;23;20075;-81
2023/11/27 09:01:21;;;;;;;7.90;5.32;;;;;;;-146.61;100.00;58846.50;6187883;23;20109;-83
2023/11/27 09:04:03;;;;;;;9.68;5.38;;;;;;;-146.61;100.00;58846.50;6211547;23;20087;-83
2023/11/27 09:06:31;;;;;;;8.50;5.25;;;;;;;-146.61;100.00;58846.50;6187873;23;20052;-83
2023/11/27 09:08:59;;;;;;;7.00;5.32;;;;;;;-146.61;100.00;58846.50;6189268;23;20128;-82
2023/11/27 09:11:26;;;;;;;6.95;5.18;;;;;;;-146.61;100.00;58846.50;6211733;23;20021;-82
2023/11/27 09:13:53;;;;;;;9.45;4.28;;;;;;;-146.61;100.00;58846.50;6186493;23;20024;-85
2023/11/27 09:16:19;;;;;;;4.38;3.90;;;;;;;-146.61;100.00;58846.50;6190219;23;20016;-81
2023/11/27 09:18:46;;;;;;;5.68;4.00;;;;;;;-146.61;100.00;58846.50;6187605;23;20021;-82
2023/11/27 09:21:13;;;;;;;5.57;5.07;;;;;;;-146.61;100.00;58846.50;6186628;23;20033;-82
2023/11/27 09:23:40;;;;;;;6.53;4.80;;;;;;;-146.61;100.00;58846.50;6188923;23;20025;-82
2023/11/27 09:26:09;;;;;;;7.20;5.50;;;;;;;-146.61;100.00;58846.50;6189835;23;20404;-83
2023/11/27 09:28:36;;;;;;;5.03;4.53;;;;;;;-146.61;100.00;58846.50;6188936;23;20025;-83
2023/11/27 09:31:03;;;;;;;5.78;5.13;;;;;;;-146.61;100.00;58846.50;6189808;23;20035;-82
2023/11/27 09:33:29;;;;;;;8.68;4.40;;;;;;;-146.61;100.00;58846.50;6189216;23;20033;-81
2023/11/27 09:36:04;;;;;;;6.50;4.38;;;;;;;-146.61;100.00;58846.50;6213461;23;20353;-84
2023/11/27 09:38:32;;;;;;;5.90;4.40;;;;;;;-146.61;100.00;58846.50;6213584;23;20402;-84
2023/11/27 09:40:59;;;;;;;4.35;3.95;;;;;;;-146.61;100.00;58846.50;6190899;23;20784;-83
2023/11/27 09:43:27;;;;;;;6.45;4.13;;;;;;;-146.61;100.00;58846.50;6190131;23;20462;-83
2023/11/27 09:45:57;;;;;;;8.02;4.28;;;;;;;-146.61;100.00;58846.50;6189217;23;20025;-81
2023/11/27 09:48:24;;;;;;;6.35;3.67;;;;;;;-146.61;100.00;58846.50;6190581;23;20029;-83
2023/11/27 09:50:59;;;;;;;4.85;4.20;;;;;;;-146.61;100.00;58846.50;6210788;23;20059;-82
2023/11/27 09:53:29;;;;;;;4.70;4.30;;;;;;;-146.61;100.00;58846.50;6211068;23;20558;-82
2023/11/27 09:55:59;;;;;;;4.13;3.72;;;;;;;-146.61;100.00;58846.50;6208691;23;20025;-81
2023/11/27 09:58:26;;;;;;;3.95;3.30;;;;;;;-146.61;100.00;58846.50;6214916;23;20021;-83
2023/11/27 10:00:54;;;;;;;3.83;3.50;;;;;;;-146.61;100.00;58846.50;6210518;23;20028;-83
2023/11/27 10:03:24;;;;;;;6.88;4.18;;;;;;;-146.61;100.00;58846.50;6160551;23;20021;-82
2023/11/27 10:05:52;;;;;;;4.18;3.78;;;;;;;-146.61;100.00;58846.50;6214986;23;20025;-83
2023/11/27 10:08:19;;;;;;;4.22;3.83;;;;;;;-146.61;100.00;58846.50;6183474;23;20051;-82
2023/11/27 10:10:50;;;;;;;3.85;3.47;;;;;;;-146.61;100.00;58846.50;6212916;23;20017;-83
2023/11/27 10:13:18;;;;;;;5.95;3.72;;;;;;;-146.61;100.00;58846.50;6187493;23;20025;-83
2023/11/27 10:15:48;;;;;;;8.00;4.82;;;;;;;-146.61;100.00;58846.50;6188430;23;20071;-82
2023/11/27 10:18:18;;;;;;;5.35;4.72;;;;;;;-146.61;100.00;58846.50;6187830;23;20454;-82
2023/11/27 10:20:45;;;;;;;6.13;5.43;;;;;;;-146.61;100.00;58846.50;6187686;23;20092;-82
2023/11/27 10:23:12;;;;;;;7.28;4.32;;;;;;;-146.61;100.00;58846.50;6185810;23;20021;-83
2023/11/27 10:25:38;;;;;;;8.60;5.30;;;;;;;-146.61;100.00;58846.50;6212639;23;20022;-85
2023/11/27 10:28:06;;;;;;;6.50;5.57;;;;;;;-146.61;100.00;58846.50;6187189;23;20080;-83
2023/11/27 10:30:32;;;;;;;6.65;4.78;;;;;;;-146.61;100.00;58846.50;6190814;23;20017;-82
2023/11/27 10:33:01;;;;;;;7.28;4.90;;;;;;;-146.61;100.00;58846.50;6188070;23;20060;-84
2023/11/27 10:35:31;;;;;;;6.50;4.88;;;;;;;-146.61;100.00;58846.50;6189363;23;20033;-82
2023/11/27 10:37:59;;;;;;;5.80;4.95;;;;;;;-146.61;100.00;58846.50;6213638;23;20021;-83
2023/11/27 10:40:26;;;;;;;8.23;5.20;;;;;;;-146.61;100.00;58846.50;6189338;23;20111;-82
2023/11/27 10:42:58;;;;;;;7.32;5.35;;;;;;;-146.61;100.00;58846.50;6214524;23;20025;-83
2023/11/27 10:45:29;;;;;;;7.47;5.70;;;;;;;-146.61;100.00;58846.50;6189797;23;20025;-82
2023/11/27 10:47:57;;;;;;;6.10;5.50;;;;;;;-146.61;100.00;58846.50;6187385;23;20036;-82
2023/11/27 10:50:25;;;;;;;5.22;4.35;;;;;;;-146.61;100.00;58846.50;6207555;23;20025;-82
2023/11/27 10:52:55;;;;;;;5.85;5.25;;;;;;;-146.61;100.00;58846.50;6181238;23;20335;-82
2023/11/27 10:55:21;;;;;;;5.88;5.05;;;;;;;-146.61;100.00;58846.50;6181393;23;20028;-82
2023/11/27 10:57:51;;;;;;;12.27;5.72;;;;;;;-146.61;100.00;58846.50;6203190;23;20024;-82
2023/11/27 11:00:28;;;;;;;7.90;4.70;;;;;;;-146.61;100.00;58846.50;6177459;23;20071;-82
2023/11/27 11:03:02;;;;;;;6.68;3.85;;;;;;;-146.61;100.00;58846.50;6201255;23;20025;-82
2023/11/27 11:05:35;;;;;;;5.15;4.65;;;;;;;-146.61;100.00;58846.50;6175427;23;20068;-83
2023/11/27 11:08:06;;;;;;;7.80;5.13;;;;;;;-146.61;100.00;58846.50;6178670;23;20105;-82